Time;durP1;ratioP1;P1;durP2;ratioP2;P2;SDS_P1;SDS_P2;PMS_P1;PMS_P2;Temp;Humidity;BMP_temperature;BMP_pressure;BME280_temperature;BME280_humidity;BME280_pressure;Samples;Min_cycle;Max_cycle;Signal;HPM_P1;HPM_P2
2024/04/15 00:01:06;;;;;;;3.05;0.90;;;19.20;87.20;;;;;;5428933;26;20845;-46
2024/04/15 00:03:32;;;;;;;1.40;0.80;;;19.20;86.00;;;;;;5431305;26;20342;-45
2024/04/15 00:06:02;;;;;;;2.80;1.08;;;19.30;88.00;;;;;;5443175;26;20273;-42
2024/04/15 00:08:33;;;;;;;2.47;1.20;;;19.60;87.60;;;;;;5430526;26;20506;-47
2024/04/15 00:11:04;;;;;;;1.75;1.10;;;19.50;87.40;;;;;;5437930;26;20324;-43
2024/04/15 00:13:33;;;;;;;2.70;0.90;;;19.10;87.20;;;;;;5437446;26;20269;-49
2024/04/15 00:16:02;;;;;;;1.80;1.25;;;19.10;87.80;;;;;;5426614;26;20350;-43
2024/04/15 00:18:30;;;;;;;3.65;1.10;;;19.20;87.40;;;;;;5440310;26;20753;-44
2024/04/15 00:20:57;;;;;;;1.35;1.02;;;19.40;87.60;;;;;;5437652;26;20234;-45
2024/04/15 00:23:25;;;;;;;2.45;1.02;;;19.20;87.30;;;;;;5432689;26;20581;-46
2024/04/15 00:25:58;;;;;;;2.75;1.27;;;19.30;88.00;;;;;;5420640;26;20234;-42
2024/04/15 00:28:30;;;;;;;2.35;1.10;;;19.10;87.80;;;;;;5444537;26;20418;-40
2024/04/15 00:30:56;;;;;;;1.70;1.00;;;19.20;84.30;;;;;;5431456;26;20355;-42
2024/04/15 00:33:30;;;;;;;1.47;1.17;;;19.10;88.30;;;;;;5436596;26;20242;-37
2024/04/15 00:35:57;;;;;;;2.20;0.90;;;19.20;88.50;;;;;;5424080;26;20467;-49
2024/04/15 00:38:25;;;;;;;1.52;1.00;;;19.80;89.20;;;;;;5421840;26;20346;-43
2024/04/15 00:40:51;;;;;;;2.03;1.10;;;20.00;90.20;;;;;;5442281;26;20479;-40
2024/04/15 00:43:22;;;;;;;1.63;1.27;;;19.90;90.00;;;;;;5427933;26;22417;-45
2024/04/15 00:45:47;;;;;;;1.83;0.90;;;18.60;88.50;;;;;;5432691;26;22520;-42
2024/04/15 00:48:19;;;;;;;1.40;1.03;;;19.10;89.20;;;;;;5430350;26;20883;-46
2024/04/15 00:50:46;;;;;;;1.80;1.20;;;19.10;89.20;;;;;;5439723;26;20322;-50
2024/04/15 00:53:21;;;;;;;1.95;1.05;;;19.70;89.80;;;;;;5420147;26;20289;-45
2024/04/15 00:55:52;;;;;;;2.50;1.30;;;19.10;88.80;;;;;;5434296;26;20654;-45
2024/04/15 00:58:24;;;;;;;1.75;1.08;;;19.30;88.90;;;;;;5441559;26;21967;-47
2024/04/15 01:00:54;;;;;;;2.67;1.15;;;19.00;88.60;;;;;;5430986;26;20347;-45
2024/04/15 01:03:23;;;;;;;1.80;0.90;;;19.10;89.20;;;;;;5438409;26;22360;-37
2024/04/15 01:05:49;;;;;;;2.15;0.95;;;18.80;88.90;;;;;;5440213;26;20257;-47
2024/04/15 01:08:18;;;;;;;1.45;1.35;;;18.90;89.80;;;;;;5436979;26;20261;-36
2024/04/15 01:10:44;;;;;;;2.60;1.20;;;19.00;89.40;;;;;;5429430;26;21333;-42
2024/04/15 01:13:12;;;;;;;1.20;1.00;;;18.90;89.90;;;;;;5437788;26;20377;-45
2024/04/15 01:15:42;;;;;;;2.38;1.00;;;18.70;89.60;;;;;;5425902;26;20338;-41
2024/04/15 01:18:12;;;;;;;1.20;0.90;;;19.10;90.30;;;;;;5436384;26;20621;-41
2024/04/15 01:20:38;;;;;;;2.15;1.25;;;18.90;90.10;;;;;;5444925;26;20330;-42
2024/04/15 01:23:17;;;;;;;2.90;1.70;;;18.80;90.10;;;;;;5436812;26;20313;-48
2024/04/15 01:25:45;;;;;;;2.33;0.98;;;18.80;90.00;;;;;;5425655;26;20544;-38
2024/04/15 01:28:18;;;;;;;1.30;1.02;;;18.90;90.80;;;;;;5435396;26;20330;-37
2024/04/15 01:30:46;;;;;;;1.58;1.02;;;18.80;90.20;;;;;;5432467;26;20891;-45
2024/04/15 01:33:14;;;;;;;1.50;1.00;;;18.80;90.30;;;;;;5444921;26;20223;-50
2024/04/15 01:35:40;;;;;;;1.00;0.70;;;19.00;90.80;;;;;;5433635;26;21719;-44
2024/04/15 01:38:09;;;;;;;1.87;0.80;;;19.00;90.40;;;;;;5438788;26;20330;-41
2024/04/15 01:40:34;;;;;;;2.47;1.20;;;18.80;90.50;;;;;;5426867;26;20333;-44
2024/04/15 01:43:07;;;;;;;2.90;1.23;;;18.80;90.60;;;;;;5431907;26;21188;-48
2024/04/15 01:45:32;;;;;;;1.30;0.88;;;18.90;90.70;;;;;;5431639;26;20398;-42
2024/04/15 01:48:04;;;;;;;1.30;0.83;;;19.00;90.40;;;;;;5441589;26;20301;-42
2024/04/15 01:50:30;;;;;;;1.30;0.90;;;18.90;90.00;;;;;;5439251;26;20278;-40
2024/04/15 01:53:00;;;;;;;2.03;0.90;;;19.00;90.20;;;;;;5426105;26;20549;-43
2024/04/15 01:55:26;;;;;;;3.55;1.00;;;18.70;86.00;;;;;;5437450;26;21012;-38
2024/04/15 01:57:54;;;;;;;2.00;1.20;;;18.60;85.10;;;;;;5443089;26;20317;-39
2024/04/15 02:00:26;;;;;;;1.35;0.90;;;18.90;85.30;;;;;;5431182;26;20813;-42
2024/04/15 02:02:55;;;;;;;1.63;1.00;;;18.90;85.10;;;;;;5441525;26;20802;-40
2024/04/15 02:05:21;;;;;;;2.10;1.13;;;18.90;85.30;;;;;;5446534;26;20230;-41
2024/04/15 02:07:50;;;;;;;1.50;0.90;;;18.80;85.20;;;;;;5443124;26;20736;-40
2024/04/15 02:10:17;;;;;;;1.40;1.10;;;18.50;85.00;;;;;;5433385;26;20234;-46
2024/04/15 02:12:46;;;;;;;2.15;1.05;;;18.80;86.10;;;;;;5431561;26;20234;-43
2024/04/15 02:15:12;;;;;;;1.40;0.80;;;19.30;86.00;;;;;;5424292;26;20329;-42
2024/04/15 02:17:43;;;;;;;1.53;0.90;;;19.30;86.00;;;;;;5445021;26;20282;-41
2024/04/15 02:20:09;;;;;;;3.50;1.00;;;18.80;85.60;;;;;;5442927;26;20710;-42
2024/04/15 02:22:38;;;;;;;2.05;1.25;;;18.80;85.70;;;;;;5428310;26;20795;-43
2024/04/15 02:25:04;;;;;;;2.33;1.08;;;18.80;85.70;;;;;;5432345;26;20498;-39
2024/04/15 02:27:35;;;;;;;2.13;1.20;;;18.80;85.70;;;;;;5432046;26;20246;-42
2024/04/15 02:30:02;;;;;;;1.75;1.30;;;18.80;85.90;;;;;;5436985;26;20323;-46
2024/04/15 02:32:30;;;;;;;2.60;1.08;;;18.80;85.90;;;;;;5441167;26;20230;-46
2024/04/15 02:35:00;;;;;;;2.20;1.08;;;18.80;86.00;;;;;;5445597;26;20238;-43
2024/04/15 02:37:28;;;;;;;2.20;0.88;;;18.50;85.80;;;;;;5433130;26;20359;-44
2024/04/15 02:39:54;;;;;;;1.60;0.90;;;19.30;86.80;;;;;;5443053;26;21914;-47
2024/04/15 02:42:23;;;;;;;1.90;1.23;;;18.80;86.30;;;;;;5446482;26;20230;-46
2024/04/15 02:44:48;;;;;;;1.00;0.70;;;18.60;86.00;;;;;;5430022;26;20238;-37
2024/04/15 02:47:20;;;;;;;2.90;1.20;;;18.70;86.30;;;;;;5436514;26;21915;-41
2024/04/15 02:49:45;;;;;;;1.00;0.80;;;18.40;86.00;;;;;;5435053;26;20246;-49
2024/04/15 02:52:16;;;;;;;1.30;0.80;;;18.70;86.40;;;;;;5428291;26;20238;-42
2024/04/15 02:54:42;;;;;;;1.75;1.08;;;18.70;87.20;;;;;;5434454;26;20251;-45
2024/04/15 02:57:10;;;;;;;1.63;0.90;;;18.70;86.50;;;;;;5438319;26;20655;-37
2024/04/15 02:59:40;;;;;;;0.98;0.70;;;18.40;86.20;;;;;;5433950;26;20341;-38
2024/04/15 03:02:08;;;;;;;1.25;0.70;;;18.70;86.70;;;;;;5410008;26;20604;-45
2024/04/15 03:04:36;;;;;;;1.20;0.85;;;18.40;86.60;;;;;;5447417;26;20954;-43
2024/04/15 03:07:06;;;;;;;2.75;1.13;;;18.70;86.80;;;;;;5431999;26;20323;-46
2024/04/15 03:09:34;;;;;;;2.75;1.08;;;18.70;86.90;;;;;;5435270;26;20646;-37
2024/04/15 03:12:03;;;;;;;3.35;0.90;;;18.40;86.60;;;;;;5436339;26;20857;-41
2024/04/15 03:14:30;;;;;;;1.83;0.90;;;19.10;87.50;;;;;;5442621;26;20671;-44
2024/04/15 03:16:58;;;;;;;3.30;0.95;;;18.70;87.80;;;;;;5433044;26;20897;-43
2024/04/15 03:19:26;;;;;;;1.20;1.00;;;18.80;87.30;;;;;;5424664;26;20234;-45
2024/04/15 03:21:57;;;;;;;1.95;0.95;;;18.60;87.10;;;;;;5432727;26;21045;-45
2024/04/15 03:24:27;;;;;;;1.10;0.75;;;18.60;87.20;;;;;;5426469;26;20272;-41
2024/04/15 03:27:01;;;;;;;1.25;0.95;;;18.50;87.20;;;;;;5435467;26;20236;-44
2024/04/15 03:29:30;;;;;;;3.47;0.90;;;18.60;87.30;;;;;;5437430;26;20269;-36
2024/04/15 03:31:58;;;;;;;1.00;0.75;;;18.60;87.40;;;;;;5424459;26;20242;-38
2024/04/15 03:34:24;;;;;;;2.17;1.02;;;18.60;87.50;;;;;;5446521;26;20896;-40
2024/04/15 03:36:55;;;;;;;1.00;0.80;;;18.60;87.50;;;;;;5408980;26;20253;-49
2024/04/15 03:39:23;;;;;;;1.10;0.90;;;18.60;87.50;;;;;;5431476;26;21081;-41
2024/04/15 03:41:52;;;;;;;1.75;1.05;;;18.70;87.80;;;;;;5444737;26;20327;-34
2024/04/15 03:44:22;;;;;;;0.98;0.82;;;18.60;87.80;;;;;;5430604;26;20234;-41
2024/04/15 03:46:49;;;;;;;1.48;0.95;;;18.60;87.80;;;;;;5414516;26;20249;-40
2024/04/15 03:49:17;;;;;;;1.23;0.93;;;18.40;87.60;;;;;;5425022;26;20238;-45
2024/04/15 03:51:43;;;;;;;2.30;0.90;;;18.50;87.80;;;;;;5426040;26;20748;-36
2024/04/15 03:54:14;;;;;;;1.03;0.80;;;18.50;87.90;;;;;;5437276;26;20682;-40
2024/04/15 03:56:46;;;;;;;1.17;0.90;;;18.60;88.10;;;;;;5437596;26;20594;-42
2024/04/15 03:59:16;;;;;;;1.30;0.98;;;18.50;88.00;;;;;;5432575;26;20238;-42
2024/04/15 04:01:46;;;;;;;1.75;1.13;;;18.50;88.10;;;;;;5412931;26;20294;-45
2024/04/15 04:04:15;;;;;;;1.48;0.98;;;18.80;88.60;;;;;;5441611;26;20330;-44
2024/04/15 04:06:41;;;;;;;2.55;0.80;;;18.50;88.20;;;;;;5421105;26;21104;-36
2024/04/15 04:09:09;;;;;;;1.00;0.70;;;18.20;88.70;;;;;;5423741;26;20312;-42
2024/04/15 04:11:37;;;;;;;1.95;0.90;;;18.20;88.00;;;;;;5424382;26;20226;-43
2024/04/15 04:14:06;;;;;;;1.35;0.80;;;18.40;88.40;;;;;;5431953;26;22323;-37
2024/04/15 04:16:31;;;;;;;1.30;1.00;;;18.50;88.50;;;;;;5432878;26;20234;-36
2024/04/15 04:19:03;;;;;;;1.10;0.80;;;18.50;88.60;;;;;;5441080;26;20647;-44
2024/04/15 04:21:33;;;;;;;1.00;0.70;;;18.50;88.60;;;;;;5439239;26;20528;-38
2024/04/15 04:24:00;;;;;;;1.45;0.80;;;18.60;89.20;;;;;;5431893;26;21264;-38
2024/04/15 04:26:30;;;;;;;1.40;1.00;;;18.40;88.40;;;;;;5426816;26;20301;-43
2024/04/15 04:28:56;;;;;;;1.23;0.90;;;18.40;88.70;;;;;;5437974;26;20363;-40
2024/04/15 04:31:26;;;;;;;1.42;1.00;;;18.10;88.40;;;;;;5433882;26;20319;-45
2024/04/15 04:33:57;;;;;;;1.40;1.00;;;18.40;88.80;;;;;;5424693;26;20310;-45
2024/04/15 04:36:28;;;;;;;1.50;1.00;;;18.40;88.80;;;;;;5441533;26;20230;-42
2024/04/15 04:38:54;;;;;;;1.60;1.08;;;18.40;88.90;;;;;;5429386;26;20238;-42
2024/04/15 04:41:23;;;;;;;1.53;0.77;;;18.40;89.00;;;;;;5438472;26;20266;-44
2024/04/15 04:43:49;;;;;;;2.05;1.17;;;18.10;88.70;;;;;;5422452;26;20239;-37
2024/04/15 04:46:17;;;;;;;2.43;0.77;;;18.20;88.90;;;;;;5436309;26;20364;-44
2024/04/15 04:48:43;;;;;;;1.20;0.90;;;18.40;89.20;;;;;;5440972;26;20334;-38
2024/04/15 04:51:13;;;;;;;1.53;0.90;;;18.40;89.20;;;;;;5433763;26;21798;-36
2024/04/15 04:53:45;;;;;;;1.10;0.80;;;19.10;90.00;;;;;;5441400;26;20234;-42
2024/04/15 04:56:15;;;;;;;2.55;0.90;;;18.50;89.50;;;;;;5420892;26;20256;-43
2024/04/15 04:58:42;;;;;;;1.30;0.80;;;18.40;89.40;;;;;;5427648;26;20744;-41
2024/04/15 05:01:11;;;;;;;3.00;1.00;;;18.30;89.60;;;;;;5437639;26;20325;-44
2024/04/15 05:03:42;;;;;;;1.50;1.00;;;18.30;90.00;;;;;;5426788;26;20246;-47
2024/04/15 05:06:13;;;;;;;1.50;0.95;;;18.40;90.30;;;;;;5429271;26;21056;-39
2024/04/15 05:08:39;;;;;;;1.05;0.73;;;18.10;90.20;;;;;;5431058;26;20296;-49
2024/04/15 05:11:12;;;;;;;1.13;0.90;;;18.40;90.50;;;;;;5443096;26;20368;-43
2024/04/15 05:13:43;;;;;;;1.50;0.95;;;18.40;90.40;;;;;;5423086;26;20665;-46
2024/04/15 05:16:13;;;;;;;1.08;0.82;;;18.60;90.60;;;;;;5438003;26;20297;-39
2024/04/15 05:18:40;;;;;;;3.70;0.85;;;18.30;90.40;;;;;;5427103;26;20809;-41
2024/04/15 05:21:16;;;;;;;1.90;0.73;;;18.30;90.40;;;;;;5427894;26;20748;-41
2024/04/15 05:23:42;;;;;;;1.60;1.00;;;18.30;90.40;;;;;;5443149;26;20231;-41
2024/04/15 05:26:16;;;;;;;1.30;1.00;;;18.30;90.50;;;;;;5459883;26;20231;-43
2024/04/15 05:28:44;;;;;;;1.88;0.80;;;18.00;90.30;;;;;;5458754;26;20234;-38
2024/04/15 05:31:12;;;;;;;2.17;0.90;;;18.00;90.30;;;;;;5461421;26;20272;-39
2024/04/15 05:33:38;;;;;;;1.30;1.05;;;18.10;90.10;;;;;;5430139;26;20276;-41
2024/04/15 05:36:09;;;;;;;2.43;0.90;;;18.40;90.60;;;;;;5432565;26;20246;-39
2024/04/15 05:38:35;;;;;;;1.83;0.90;;;18.30;90.50;;;;;;5426123;26;20226;-45
2024/04/15 05:41:03;;;;;;;2.03;1.13;;;18.50;90.40;;;;;;5438504;26;21016;-39
2024/04/15 05:43:31;;;;;;;1.40;1.00;;;18.50;90.20;;;;;;5436214;26;20230;-46
2024/04/15 05:46:01;;;;;;;1.90;1.10;;;18.60;90.10;;;;;;5437942;26;20275;-43
2024/04/15 05:48:27;;;;;;;1.00;0.70;;;18.50;90.10;;;;;;5440551;26;20669;-41
2024/04/15 05:50:58;;;;;;;1.37;0.80;;;18.50;90.20;;;;;;5437455;26;20276;-46
2024/04/15 05:53:23;;;;;;;2.03;0.90;;;18.50;90.10;;;;;;5428293;26;20727;-42
2024/04/15 05:55:52;;;;;;;1.30;0.90;;;18.60;90.20;;;;;;5431895;26;20406;-41
2024/04/15 05:58:17;;;;;;;1.42;1.10;;;18.60;90.10;;;;;;5422242;26;20818;-38
2024/04/15 06:00:53;;;;;;;1.20;0.87;;;19.00;90.30;;;;;;5426214;26;20234;-41
2024/04/15 06:03:19;;;;;;;1.10;0.90;;;18.70;90.00;;;;;;5437709;26;20235;-44
2024/04/15 06:05:47;;;;;;;1.20;0.80;;;18.80;89.70;;;;;;5432487;26;20892;-41
2024/04/15 06:08:13;;;;;;;1.63;0.88;;;18.80;89.80;;;;;;5419636;26;20258;-42
2024/04/15 06:10:41;;;;;;;2.23;0.90;;;18.80;89.70;;;;;;5428718;26;20301;-45
2024/04/15 06:13:11;;;;;;;1.25;0.85;;;18.90;89.40;;;;;;5443405;26;20238;-43
2024/04/15 06:15:41;;;;;;;1.80;1.02;;;18.90;88.80;;;;;;5430575;26;20873;-46
2024/04/15 06:18:09;;;;;;;1.35;0.80;;;19.00;89.20;;;;;;5449658;26;20243;-47
2024/04/15 06:20:38;;;;;;;1.20;0.80;;;18.50;88.70;;;;;;5445381;26;20472;-42
2024/04/15 06:23:04;;;;;;;1.45;0.80;;;18.80;89.00;;;;;;5443309;26;20331;-43
2024/04/15 06:25:32;;;;;;;1.00;0.87;;;19.00;89.20;;;;;;5424959;26;20238;-38
2024/04/15 06:28:00;;;;;;;1.40;0.90;;;18.70;88.70;;;;;;5436029;26;20234;-42
2024/04/15 06:30:28;;;;;;;3.13;0.93;;;19.10;89.40;;;;;;5433885;26;20330;-40
2024/04/15 06:32:54;;;;;;;2.20;1.05;;;18.80;88.60;;;;;;5430213;26;20235;-44
2024/04/15 06:35:26;;;;;;;1.47;0.80;;;18.80;88.50;;;;;;5436024;26;20227;-44
2024/04/15 06:37:53;;;;;;;1.75;1.30;;;18.80;88.30;;;;;;5437560;26;20234;-38
2024/04/15 06:40:22;;;;;;;1.95;1.10;;;18.80;87.70;;;;;;5450195;26;20239;-45
2024/04/15 06:42:48;;;;;;;1.90;0.98;;;19.20;88.40;;;;;;5428497;26;20285;-42
2024/04/15 06:45:21;;;;;;;1.63;1.10;;;18.80;87.90;;;;;;5445958;26;20318;-46
2024/04/15 06:47:48;;;;;;;1.80;0.95;;;18.80;87.80;;;;;;5420515;26;20341;-41
2024/04/15 06:50:22;;;;;;;1.67;0.90;;;18.80;87.40;;;;;;5438901;26;20825;-44
2024/04/15 06:52:52;;;;;;;1.30;0.90;;;18.80;87.40;;;;;;5430593;26;20291;-43
2024/04/15 06:55:21;;;;;;;1.52;1.05;;;18.90;87.20;;;;;;5437004;26;20227;-43
2024/04/15 06:57:49;;;;;;;2.70;1.10;;;18.90;86.90;;;;;;5428966;26;20235;-44
2024/04/15 07:00:18;;;;;;;1.40;1.05;;;19.00;86.70;;;;;;5439747;26;20665;-39
2024/04/15 07:02:45;;;;;;;3.15;1.35;;;19.00;86.70;;;;;;5438379;26;20356;-40
2024/04/15 07:05:14;;;;;;;1.42;0.90;;;18.90;87.30;;;;;;5431962;26;20284;-37
2024/04/15 07:07:42;;;;;;;2.15;1.10;;;18.90;86.40;;;;;;5437968;26;20243;-50
2024/04/15 07:10:14;;;;;;;2.47;1.15;;;18.90;86.20;;;;;;5433422;26;20315;-41
2024/04/15 07:12:39;;;;;;;3.35;1.30;;;19.00;85.90;;;;;;5437858;26;20244;-38
2024/04/15 07:15:13;;;;;;;1.50;1.40;;;18.90;85.70;;;;;;5444566;26;20355;-37
2024/04/15 07:17:41;;;;;;;2.47;1.23;;;18.90;85.70;;;;;;5438056;26;20249;-47
2024/04/15 07:20:12;;;;;;;3.90;1.13;;;18.80;85.40;;;;;;5435353;26;20277;-43
2024/04/15 07:22:38;;;;;;;1.83;1.10;;;18.80;85.40;;;;;;5424202;26;20246;-38
2024/04/15 07:25:06;;;;;;;3.87;1.73;;;18.40;85.00;;;;;;5448579;26;20243;-39
2024/04/15 07:27:39;;;;;;;3.58;1.65;;;18.80;85.00;;;;;;5439592;26;20524;-42
2024/04/15 07:30:08;;;;;;;6.97;1.60;;;18.90;84.80;;;;;;5430719;26;20869;-45
2024/04/15 07:32:41;;;;;;;5.05;1.45;;;18.80;84.30;;;;;;5432930;26;21163;-41
2024/04/15 07:35:10;;;;;;;3.00;1.42;;;19.20;84.20;;;;;;5436171;26;20289;-43
2024/04/15 07:37:37;;;;;;;3.97;1.50;;;18.80;83.20;;;;;;5429280;26;20239;-38
2024/04/15 07:40:08;;;;;;;5.70;1.80;;;18.60;82.80;;;;;;5437252;26;20231;-44
2024/04/15 07:42:36;;;;;;;4.88;2.10;;;18.80;82.50;;;;;;5436262;26;20238;-43
2024/04/15 07:45:05;;;;;;;4.72;2.08;;;18.80;82.50;;;;;;5434619;26;20281;-42
2024/04/15 07:47:31;;;;;;;2.80;1.60;;;18.90;82.30;;;;;;5437719;26;20242;-47
2024/04/15 07:50:01;;;;;;;3.83;1.63;;;18.60;81.90;;;;;;5424545;26;21038;-43
2024/04/15 07:52:35;;;;;;;5.10;2.05;;;18.50;81.30;;;;;;5440722;26;20754;-45
2024/04/15 07:55:05;;;;;;;13.55;2.65;;;18.80;81.20;;;;;;5434742;26;20269;-43
2024/04/15 07:57:31;;;;;;;4.32;1.73;;;18.90;80.90;;;;;;5429395;26;20758;-42
2024/04/15 08:00:04;;;;;;;4.30;2.00;;;18.90;80.90;;;;;;5435729;26;20277;-42
2024/04/15 08:02:30;;;;;;;3.88;1.30;;;18.90;80.60;;;;;;5424627;26;20234;-40
2024/04/15 08:04:58;;;;;;;4.63;1.40;;;18.90;80.60;;;;;;5425183;26;20357;-45
2024/04/15 08:07:24;;;;;;;1.95;1.20;;;18.90;80.70;;;;;;5435261;26;20568;-41
2024/04/15 08:09:58;;;;;;;3.87;1.70;;;19.00;80.60;;;;;;5435834;26;20861;-40
2024/04/15 08:12:23;;;;;;;2.20;1.63;;;19.20;80.40;;;;;;5429773;26;20234;-40
2024/04/15 08:14:55;;;;;;;5.50;1.87;;;19.00;80.20;;;;;;5435796;26;20238;-40
2024/04/15 08:17:25;;;;;;;2.50;1.58;;;19.10;80.30;;;;;;5434062;26;20649;-42
2024/04/15 08:19:57;;;;;;;1.63;1.35;;;19.00;80.50;;;;;;5425245;26;20230;-40
2024/04/15 08:22:28;;;;;;;2.53;1.83;;;18.90;80.50;;;;;;5432448;26;20806;-46
2024/04/15 08:24:56;;;;;;;2.25;1.73;;;19.10;81.60;;;;;;5434468;26;20261;-44
2024/04/15 08:27:26;;;;;;;6.65;1.95;;;19.20;80.70;;;;;;5419262;26;20338;-44
2024/04/15 08:29:55;;;;;;;1.63;1.52;;;19.20;80.40;;;;;;5422174;26;20223;-46
2024/04/15 08:32:23;;;;;;;2.88;1.85;;;19.30;80.30;;;;;;5426837;26;20560;-40
2024/04/15 08:34:55;;;;;;;4.40;1.98;;;19.40;80.40;;;;;;5439557;26;20820;-38
2024/04/15 08:37:21;;;;;;;2.67;1.67;;;19.40;80.20;;;;;;5430454;26;20268;-46
2024/04/15 08:39:51;;;;;;;3.07;1.60;;;19.40;80.40;;;;;;5434343;26;20294;-46
2024/04/15 08:42:29;;;;;;;2.97;1.70;;;19.50;80.40;;;;;;5412381;26;20230;-47
2024/04/15 08:45:01;;;;;;;3.60;2.00;;;19.50;80.20;;;;;;5429233;26;21035;-44
2024/04/15 08:47:38;;;;;;;2.63;1.75;;;19.50;79.70;;;;;;5426130;26;20276;-47
2024/04/15 08:50:08;;;;;;;6.72;2.05;;;19.50;79.90;;;;;;5437312;26;20741;-43
2024/04/15 08:52:34;;;;;;;3.17;1.60;;;19.50;79.70;;;;;;5434018;26;20266;-43
2024/04/15 08:55:05;;;;;;;2.87;1.43;;;19.20;79.60;;;;;;5420906;26;23428;-48
2024/04/15 08:57:31;;;;;;;8.23;3.25;;;19.40;79.40;;;;;;5445105;26;20337;-38
2024/04/15 09:00:04;;;;;;;4.32;1.65;;;19.20;79.00;;;;;;5430872;26;20238;-41
2024/04/15 09:02:35;;;;;;;5.07;1.90;;;19.40;79.10;;;;;;5423516;26;20347;-41
2024/04/15 09:05:04;;;;;;;3.65;1.83;;;19.40;79.00;;;;;;5433191;26;20235;-42
2024/04/15 09:07:34;;;;;;;8.20;2.15;;;19.40;79.20;;;;;;5422454;26;20315;-39
2024/04/15 09:10:02;;;;;;;2.42;1.65;;;19.40;78.60;;;;;;5429533;26;20311;-45
2024/04/15 09:12:35;;;;;;;2.80;1.70;;;19.40;77.40;;;;;;5434995;26;20226;-49
2024/04/15 09:15:05;;;;;;;4.72;2.40;;;19.10;76.50;;;;;;5427835;26;20244;-40
2024/04/15 09:17:45;;;;;;;6.50;1.75;;;19.50;77.40;;;;;;5419951;26;20242;-40
2024/04/15 09:20:18;;;;;;;5.10;2.10;;;19.50;77.00;;;;;;5431255;26;20261;-37
2024/04/15 09:22:44;;;;;;;4.80;1.85;;;19.50;76.80;;;;;;5418817;26;20402;-49
2024/04/15 09:25:16;;;;;;;7.35;2.00;;;19.60;76.80;;;;;;5432400;26;20379;-48
2024/04/15 09:27:47;;;;;;;2.22;1.45;;;19.60;76.80;;;;;;5423526;26;20260;-43
2024/04/15 09:30:18;;;;;;;5.28;1.42;;;19.40;80.60;;;;;;5427665;26;20638;-46
2024/04/15 09:32:46;;;;;;;2.95;1.60;;;19.60;81.50;;;;;;5440431;26;20238;-38
2024/04/15 09:35:17;;;;;;;5.43;1.60;;;20.00;82.00;;;;;;5432476;26;20226;-38
2024/04/15 09:37:42;;;;;;;3.97;2.00;;;19.60;80.80;;;;;;5426180;26;20230;-44
2024/04/15 09:40:16;;;;;;;4.40;1.90;;;19.70;82.60;;;;;;5422465;26;23045;-45
2024/04/15 09:42:44;;;;;;;3.20;1.67;;;19.70;82.80;;;;;;5428004;26;20464;-42
2024/04/15 09:45:14;;;;;;;7.57;2.05;;;19.70;82.80;;;;;;5430897;26;20226;-42
2024/04/15 09:47:46;;;;;;;2.47;1.70;;;19.60;82.70;;;;;;5428296;26;20246;-41
2024/04/15 09:50:27;;;;;;;4.43;1.70;;;19.70;82.80;;;;;;5437725;26;20281;-44
2024/04/15 09:52:59;;;;;;;2.67;1.60;;;20.10;82.60;;;;;;5424061;26;20234;-45
2024/04/15 09:55:43;;;;;;;3.63;1.52;;;19.60;81.20;;;;;;5434458;26;20781;-39
2024/04/15 09:58:18;;;;;;;4.15;2.10;;;19.80;77.80;;;;;;5428638;26;20786;-39
2024/04/15 10:00:56;;;;;;;4.90;1.42;;;19.50;79.80;;;;;;5440113;26;20225;-49
2024/04/15 10:03:28;;;;;;;3.55;1.75;;;20.40;80.60;;;;;;5435161;26;20621;-39
2024/04/15 10:06:04;;;;;;;3.45;1.52;;;19.80;78.20;;;;;;5429794;26;20303;-39
2024/04/15 10:08:32;;;;;;;5.20;2.00;;;19.70;77.20;;;;;;5425968;26;20238;-41
2024/04/15 10:11:03;;;;;;;3.92;1.52;;;20.20;77.40;;;;;;5434341;26;20235;-45
2024/04/15 10:13:29;;;;;;;5.30;1.50;;;20.20;77.40;;;;;;5439530;26;20338;-42
2024/04/15 10:16:04;;;;;;;3.07;1.50;;;20.60;77.80;;;;;;5443469;26;20277;-46
2024/04/15 10:18:30;;;;;;;5.10;1.88;;;20.30;77.50;;;;;;5440115;26;20226;-42
2024/04/15 10:21:02;;;;;;;5.17;1.90;;;19.70;77.00;;;;;;5420133;26;20773;-44
2024/04/15 10:23:30;;;;;;;3.55;1.50;;;20.60;77.40;;;;;;5439018;26;20265;-46
2024/04/15 10:25:59;;;;;;;5.78;1.40;;;19.90;76.50;;;;;;5424580;26;20315;-42
2024/04/15 10:28:24;;;;;;;2.50;1.35;;;19.80;76.30;;;;;;5438655;26;20238;-46
2024/04/15 10:30:55;;;;;;;2.57;1.10;;;19.90;77.40;;;;;;5436504;26;20873;-45
2024/04/15 10:33:24;;;;;;;3.65;1.40;;;19.90;77.20;;;;;;5430275;26;20230;-43
2024/04/15 10:35:56;;;;;;;3.67;1.40;;;19.70;76.00;;;;;;5425597;26;20238;-44
2024/04/15 10:38:27;;;;;;;3.00;1.20;;;19.80;77.80;;;;;;5425934;26;20247;-42
2024/04/15 10:40:55;;;;;;;4.30;2.15;;;20.10;78.00;;;;;;5445587;26;20227;-41
2024/04/15 10:43:24;;;;;;;3.78;1.45;;;19.80;77.80;;;;;;5425267;26;22127;-43
2024/04/15 10:45:56;;;;;;;3.05;1.45;;;19.90;76.00;;;;;;5434756;26;20342;-37
2024/04/15 10:48:24;;;;;;;5.80;1.30;;;20.60;78.20;;;;;;5424553;26;20530;-44
2024/04/15 10:50:53;;;;;;;2.65;1.48;;;20.40;78.10;;;;;;5437591;26;20342;-41
2024/04/15 10:53:21;;;;;;;2.22;1.42;;;20.10;77.60;;;;;;5415714;26;20285;-46
2024/04/15 10:55:52;;;;;;;1.65;1.02;;;19.90;77.70;;;;;;5441879;26;20245;-38
2024/04/15 10:58:37;;;;;;;3.35;1.10;;;20.00;77.60;;;;;;5436047;26;20924;-44
2024/04/15 11:01:05;;;;;;;2.00;1.10;;;20.40;78.70;;;;;;5426147;26;20370;-38
2024/04/15 11:03:33;;;;;;;4.15;1.50;;;20.00;78.60;;;;;;5451636;26;20652;-41
2024/04/15 11:05:59;;;;;;;2.03;1.48;;;20.20;79.30;;;;;;5430361;26;20480;-50
2024/04/15 11:08:42;;;;;;;1.50;1.10;;;21.20;81.10;;;;;;5433986;26;20242;-43
2024/04/15 11:11:28;;;;;;;3.17;1.20;;;20.40;79.80;;;;;;5426287;26;20332;-47
2024/04/15 11:13:57;;;;;;;5.00;1.30;;;20.00;79.30;;;;;;5414202;26;20238;-38
2024/04/15 11:16:31;;;;;;;2.28;1.30;;;19.90;79.40;;;;;;5443117;26;20235;-47
2024/04/15 11:19:07;;;;;;;2.00;1.10;;;20.60;77.90;;;;;;5438226;26;20238;-44
2024/04/15 11:21:34;;;;;;;3.10;1.63;;;20.10;79.40;;;;;;5433798;26;20829;-38
2024/04/15 11:24:06;;;;;;;2.25;1.70;;;20.00;79.20;;;;;;5442163;26;20234;-45
2024/04/15 11:26:39;;;;;;;2.55;1.30;;;20.50;79.30;;;;;;5436943;26;21227;-43
2024/04/15 11:29:10;;;;;;;3.90;1.30;;;20.10;79.50;;;;;;5430282;26;20235;-43
2024/04/15 11:31:42;;;;;;;2.35;1.40;;;20.10;79.50;;;;;;5435575;26;20256;-39
2024/04/15 11:34:11;;;;;;;4.30;1.65;;;20.20;77.60;;;;;;5433814;26;20226;-40
2024/04/15 11:36:40;;;;;;;5.35;1.65;;;20.20;79.20;;;;;;5436184;26;20239;-43
2024/04/15 11:39:10;;;;;;;2.50;1.10;;;20.70;80.40;;;;;;5441229;26;20761;-43
2024/04/15 11:41:46;;;;;;;2.80;1.13;;;20.10;79.60;;;;;;5434044;26;20924;-40
2024/04/15 11:44:15;;;;;;;1.90;0.90;;;20.40;79.70;;;;;;5437390;26;20237;-44
2024/04/15 11:46:52;;;;;;;3.63;1.13;;;20.10;79.90;;;;;;5438294;26;20917;-47
2024/04/15 11:49:23;;;;;;;1.35;1.10;;;21.00;81.00;;;;;;5420897;26;20264;-45
2024/04/15 11:51:50;;;;;;;1.98;1.30;;;20.20;80.70;;;;;;5414960;26;20230;-42
2024/04/15 11:54:22;;;;;;;2.88;1.02;;;20.10;80.10;;;;;;5423539;26;20646;-45
2024/04/15 11:56:57;;;;;;;1.85;1.15;;;20.00;80.70;;;;;;5432062;26;20226;-42
2024/04/15 11:59:27;;;;;;;2.22;1.02;;;20.20;77.60;;;;;;5435805;26;20229;-47
2024/04/15 12:01:55;;;;;;;2.35;1.00;;;20.20;81.00;;;;;;5424402;26;20608;-51
2024/04/15 12:04:27;;;;;;;4.70;1.20;;;19.80;81.40;;;;;;5421314;26;20548;-43
2024/04/15 12:06:55;;;;;;;2.47;1.17;;;20.20;81.70;;;;;;5420446;26;20247;-44
2024/04/15 12:09:26;;;;;;;1.60;1.30;;;20.90;82.40;;;;;;5421781;26;20230;-44
2024/04/15 12:11:54;;;;;;;4.20;1.48;;;20.10;82.30;;;;;;5423780;26;20346;-46
2024/04/15 12:14:23;;;;;;;3.15;1.10;;;20.40;83.60;;;;;;5432949;26;20271;-41
2024/04/15 12:16:53;;;;;;;1.80;1.20;;;20.80;83.40;;;;;;5424427;26;20369;-44
2024/04/15 12:19:23;;;;;;;6.05;1.60;;;20.10;81.70;;;;;;5437774;26;20226;-39
2024/04/15 12:21:49;;;;;;;2.60;1.10;;;20.10;82.10;;;;;;5426304;26;20245;-41
2024/04/15 12:24:20;;;;;;;3.55;1.42;;;20.20;82.40;;;;;;5424079;26;20388;-50
2024/04/15 12:26:46;;;;;;;2.00;1.40;;;20.50;83.50;;;;;;5413395;26;20327;-49
2024/04/15 12:29:20;;;;;;;3.77;1.30;;;20.70;84.90;;;;;;5426333;26;20277;-42
2024/04/15 12:31:50;;;;;;;2.45;1.45;;;20.50;84.50;;;;;;5427378;26;20238;-44
2024/04/15 12:34:18;;;;;;;3.50;1.33;;;20.50;84.00;;;;;;5415639;26;20318;-45
2024/04/15 12:36:46;;;;;;;2.45;1.38;;;21.10;85.10;;;;;;5427592;26;20227;-36
2024/04/15 12:39:20;;;;;;;1.30;1.00;;;20.50;84.10;;;;;;5423211;26;20342;-47
2024/04/15 12:42:02;;;;;;;;;;;;;;;;;;;;;
2024/04/15 12:44:33;;;;;;;1.60;1.13;;;20.70;85.00;;;;;;5421323;26;20314;-41
2024/04/15 12:47:00;;;;;;;2.08;1.25;;;20.30;85.50;;;;;;5420266;26;20222;-42
2024/04/15 12:49:34;;;;;;;2.45;1.42;;;21.40;86.40;;;;;;5435497;26;20235;-43
2024/04/15 12:52:00;;;;;;;1.40;1.00;;;20.60;84.20;;;;;;5430067;26;20278;-39
2024/04/15 12:54:28;;;;;;;2.57;1.07;;;20.40;86.30;;;;;;5427797;26;20611;-44
2024/04/15 12:56:54;;;;;;;1.63;1.52;;;20.50;86.10;;;;;;5421946;26;20235;-38
2024/04/15 12:59:25;;;;;;;2.03;1.10;;;20.60;86.40;;;;;;5434368;26;20635;-49